createdAt,value
2022-12-19T00:03:38.780Z,100
2022-12-19T00:08:21.831Z,100
2022-12-19T00:13:04.811Z,100
2022-12-19T00:17:47.780Z,100
2022-12-19T00:22:30.782Z,100
2022-12-19T00:27:13.785Z,100
2022-12-19T00:31:56.884Z,100
2022-12-19T00:36:39.872Z,100
2022-12-19T00:41:22.848Z,100
2022-12-19T00:46:06.064Z,100
2022-12-19T00:50:49.036Z,100
2022-12-19T00:55:32.639Z,100
2022-12-19T01:00:15.552Z,100
2022-12-19T01:04:58.490Z,100
2022-12-19T01:09:41.426Z,100
2022-12-19T01:14:25.371Z,100
2022-12-19T01:19:09.294Z,100
2022-12-19T01:23:52.262Z,100
2022-12-19T01:28:35.170Z,100
2022-12-19T01:33:18.124Z,100
2022-12-19T01:38:12.821Z,100
2022-12-19T01:42:55.760Z,100
2022-12-19T01:47:38.704Z,100
2022-12-19T01:52:25.822Z,100
2022-12-19T01:57:08.795Z,100
2022-12-19T02:01:54.304Z,100
2022-12-19T02:06:37.432Z,100
2022-12-19T02:11:20.457Z,100
2022-12-19T02:16:03.430Z,100
2022-12-19T02:20:47.560Z,100
2022-12-19T02:25:30.517Z,100
2022-12-19T02:30:13.568Z,100
2022-12-19T02:34:56.508Z,100
2022-12-19T02:39:39.478Z,100
2022-12-19T02:44:22.448Z,100
2022-12-19T02:49:05.368Z,100
2022-12-19T02:53:48.357Z,100
2022-12-19T02:58:31.359Z,100
2022-12-19T03:03:14.740Z,100
2022-12-19T03:07:57.736Z,100
2022-12-19T03:12:40.686Z,100
2022-12-19T03:17:23.695Z,100
2022-12-19T03:22:06.690Z,100
2022-12-19T03:26:49.663Z,100
2022-12-19T03:31:32.674Z,100
2022-12-19T03:36:15.647Z,100
2022-12-19T03:40:58.570Z,100
2022-12-19T03:45:41.819Z,100
2022-12-19T03:50:26.047Z,100
2022-12-19T03:55:08.997Z,100
2022-12-19T03:59:51.958Z,100
2022-12-19T04:04:34.888Z,100
2022-12-19T04:09:25.485Z,100
2022-12-19T04:14:08.503Z,100
2022-12-19T04:18:51.552Z,100
2022-12-19T04:23:34.552Z,100
2022-12-19T04:28:17.617Z,100
2022-12-19T04:33:01.753Z,99.9
2022-12-19T04:37:45.055Z,99.85
2022-12-19T04:42:28.044Z,99.9
2022-12-19T04:47:11.053Z,99.56
2022-12-19T04:51:54.843Z,99.37
2022-12-19T04:56:38.439Z,99.15
2022-12-19T05:01:21.772Z,99.01
2022-12-19T05:06:04.880Z,99.04
2022-12-19T05:10:48.270Z,99.06
2022-12-19T05:15:31.282Z,99.14
2022-12-19T05:20:14.255Z,99.34
2022-12-19T05:24:57.255Z,99.58
2022-12-19T05:29:40.256Z,99.63
2022-12-19T05:34:23.201Z,99.78
2022-12-19T05:39:06.178Z,99.85
2022-12-19T05:43:49.139Z,99.92
2022-12-19T05:48:32.146Z,99.99
2022-12-19T05:53:15.417Z,99.89
2022-12-19T05:57:58.690Z,99.63
2022-12-19T06:02:42.095Z,99.77
2022-12-19T06:07:25.336Z,99.65
2022-12-19T06:12:08.355Z,98.8
2022-12-19T06:16:51.703Z,98.66
2022-12-19T06:21:34.737Z,98.34
2022-12-19T06:26:21.900Z,97.85
2022-12-19T06:31:04.962Z,98.3
2022-12-19T06:35:47.993Z,98.22
2022-12-19T06:40:31.028Z,97.99
2022-12-19T06:45:14.011Z,97.09
2022-12-19T06:49:57.098Z,96.48
2022-12-19T06:54:40.092Z,95.81
2022-12-19T06:59:23.075Z,95.41
2022-12-19T07:04:06.100Z,95.15
2022-12-19T07:08:49.179Z,95.06
2022-12-19T07:13:32.310Z,94.65
2022-12-19T07:18:15.300Z,94.54
2022-12-19T07:22:58.355Z,94.42
2022-12-19T07:27:41.322Z,94.12
2022-12-19T07:32:24.283Z,93.69
2022-12-19T07:37:08.513Z,93.65
2022-12-19T07:41:51.477Z,93.15
2022-12-19T07:46:35.352Z,92.89
2022-12-19T07:51:18.344Z,92.41
2022-12-19T07:56:01.355Z,92.17
2022-12-19T08:00:44.788Z,91.65
2022-12-19T08:05:27.944Z,91.05
2022-12-19T08:10:12.556Z,90.48
2022-12-19T08:15:00.431Z,89.87
2022-12-19T08:19:44.344Z,89.23
2022-12-19T08:24:27.727Z,88.53
2022-12-19T08:29:13.102Z,87.87
2022-12-19T08:33:56.415Z,86.87
2022-12-19T08:38:42.399Z,86.38
2022-12-19T08:43:25.377Z,85.81
2022-12-19T08:48:08.409Z,86.48
2022-12-19T08:52:52.806Z,86.02
2022-12-19T08:57:35.809Z,85.65
2022-12-19T09:02:19.512Z,84.3
2022-12-19T09:07:02.669Z,82.5
2022-12-19T09:11:50.351Z,79.99
2022-12-19T09:16:33.609Z,76.36
2022-12-19T09:21:16.723Z,73.68
2022-12-19T09:25:59.866Z,69.67
2022-12-19T09:30:43.117Z,68.54
2022-12-19T09:35:32.080Z,66.22
2022-12-19T09:40:15.109Z,63
2022-12-19T09:44:58.142Z,63.52
2022-12-19T09:49:45.818Z,62.82
2022-12-19T09:54:28.830Z,64.58
2022-12-19T09:59:11.881Z,66.94
2022-12-19T10:03:55.124Z,72.84
2022-12-19T10:12:46.940Z,75.3
2022-12-19T10:17:32.273Z,76.34
2022-12-19T10:22:21.029Z,77.06
2022-12-19T10:27:04.026Z,77.88
2022-12-19T10:31:54.633Z,77.44
2022-12-19T10:37:37.540Z,76.96
2022-12-19T10:42:22.957Z,77.07
2022-12-19T10:47:07.063Z,77.44
2022-12-19T10:51:50.148Z,76.57
2022-12-19T10:56:39.997Z,76.1
2022-12-19T11:01:23.823Z,75.67
2022-12-19T11:06:07.026Z,74.93
2022-12-19T11:29:27.973Z,74.96
2022-12-19T11:35:38.169Z,75.12
2022-12-19T11:40:21.155Z,75.23
2022-12-19T11:45:04.149Z,75.83
2022-12-19T11:49:50.335Z,76.06
2022-12-19T11:54:33.342Z,76.42
2022-12-19T11:59:16.467Z,77.37
2022-12-19T12:04:05.176Z,77.69
2022-12-19T12:38:29.233Z,80.01
2022-12-19T12:43:12.927Z,79.95
2022-12-19T12:47:55.987Z,79.75
2022-12-19T12:52:42.035Z,80.68
2022-12-19T12:57:28.937Z,80.25
2022-12-19T13:02:14.083Z,80.65
2022-12-19T13:06:57.340Z,80.16
2022-12-19T13:11:40.599Z,81.19
2022-12-19T13:16:23.715Z,81.32
2022-12-19T13:21:06.814Z,81.86
2022-12-19T13:25:50.972Z,82.63
2022-12-19T13:31:23.080Z,82.87
2022-12-19T13:40:12.846Z,84.08
2022-12-19T13:44:57.289Z,84.28
2022-12-19T13:49:40.332Z,84.74
2022-12-19T13:54:23.387Z,85.36
2022-12-19T13:59:08.736Z,85.43
2022-12-19T14:03:52.119Z,85.96
2022-12-19T14:08:35.436Z,86.38
2022-12-19T14:14:16.314Z,86.78
2022-12-19T14:19:00.853Z,87.28
2022-12-19T14:23:46.015Z,87.3
2022-12-19T14:28:32.628Z,87.36
2022-12-19T14:34:43.601Z,87.89
2022-12-19T14:39:47.501Z,87.83
2022-12-19T14:56:11.856Z,88.41
2022-12-19T15:01:19.468Z,88.49
2022-12-19T15:07:13.390Z,88.55
2022-12-19T15:14:59.777Z,88.67
2022-12-19T15:19:45.438Z,88.86
2022-12-19T15:24:28.537Z,89.02
2022-12-19T15:29:18.135Z,89.02
2022-12-19T15:34:48.625Z,89.25
2022-12-19T15:39:33.654Z,89.28
2022-12-19T15:44:16.803Z,89.35
2022-12-19T15:49:00.137Z,89.39
2022-12-19T15:53:43.757Z,89.53
2022-12-19T15:58:26.903Z,89.9
2022-12-19T16:03:28.609Z,90
2022-12-19T16:08:12.569Z,90.14
2022-12-19T16:12:57.468Z,90.18
2022-12-19T16:17:40.625Z,89.69
2022-12-19T16:22:23.901Z,89.9
2022-12-19T16:27:07.094Z,89.84
2022-12-19T16:31:50.393Z,89.33
2022-12-19T16:36:33.497Z,89.56
2022-12-19T16:41:16.509Z,89.67
2022-12-19T16:46:03.566Z,89.79
2022-12-19T16:50:47.997Z,90.01
2022-12-19T16:55:31.187Z,90.54
2022-12-19T17:00:14.324Z,90.74
2022-12-19T17:04:57.546Z,90.82
2022-12-19T17:09:40.906Z,90.67
2022-12-19T17:14:24.964Z,90.88
2022-12-19T17:19:08.000Z,90.75
2022-12-19T17:23:51.072Z,90.36
2022-12-19T17:28:34.135Z,90.75
2022-12-19T17:33:17.130Z,90.79
2022-12-19T17:38:00.263Z,90.95
2022-12-19T17:42:43.352Z,91.25
2022-12-19T17:47:26.483Z,91.2
2022-12-19T17:52:09.529Z,90.82
2022-12-19T17:56:52.566Z,91.1
2022-12-19T18:01:36.096Z,91.48
2022-12-19T18:06:19.354Z,91.94
2022-12-19T18:11:02.380Z,91.71
2022-12-19T18:15:45.501Z,92.03
2022-12-19T18:20:34.085Z,92.96
2022-12-19T18:25:17.206Z,94.4
2022-12-19T18:30:00.302Z,95.02
2022-12-19T18:34:43.399Z,96.32
2022-12-19T18:39:27.562Z,96.57
2022-12-19T18:44:10.677Z,96.87
2022-12-19T18:48:56.597Z,97.42
2022-12-19T18:53:41.130Z,98.16
2022-12-19T18:58:24.263Z,98.96
2022-12-19T19:03:08.262Z,99.78
2022-12-19T19:07:51.424Z,100
2022-12-19T19:12:34.557Z,100
2022-12-19T19:17:19.041Z,100
2022-12-19T19:22:02.218Z,100
2022-12-19T19:26:45.318Z,100
2022-12-19T19:31:28.953Z,100
2022-12-19T19:36:33.247Z,100
2022-12-19T19:41:16.286Z,100
2022-12-19T19:45:59.581Z,100
2022-12-19T19:50:45.162Z,99.95
2022-12-19T19:55:28.277Z,99.61
2022-12-19T20:00:11.404Z,99.22
2022-12-19T20:04:54.484Z,99.34
2022-12-19T20:09:37.749Z,98.96
2022-12-19T20:14:22.282Z,98.18
2022-12-19T20:19:05.343Z,97.92
2022-12-19T20:23:48.514Z,97.88
2022-12-19T20:28:31.571Z,98.1
2022-12-19T20:33:14.721Z,98.74
2022-12-19T20:37:57.770Z,100
2022-12-19T20:42:40.799Z,100
2022-12-19T20:47:24.214Z,100
2022-12-19T20:52:07.254Z,100
2022-12-19T20:56:50.304Z,100
2022-12-19T21:01:36.443Z,100
2022-12-19T21:06:19.471Z,100
2022-12-19T21:11:02.613Z,100
2022-12-19T21:15:45.864Z,100
2022-12-19T21:20:36.128Z,100
2022-12-19T21:25:19.491Z,100
2022-12-19T21:30:02.493Z,100
2022-12-19T21:34:45.512Z,100
2022-12-19T21:39:28.484Z,100
2022-12-19T21:44:11.566Z,100
2022-12-19T21:48:54.635Z,100
2022-12-19T21:53:37.632Z,100
2022-12-19T21:58:20.678Z,100
2022-12-19T22:03:18.137Z,100
2022-12-19T22:08:01.350Z,100
2022-12-19T22:12:45.049Z,100
2022-12-19T22:17:28.095Z,100
2022-12-19T22:22:11.153Z,100
2022-12-19T22:26:54.166Z,100
2022-12-19T22:31:37.503Z,100
2022-12-19T22:36:30.126Z,100
2022-12-19T22:41:13.379Z,100
2022-12-19T22:45:56.574Z,100
2022-12-19T22:50:39.600Z,100
2022-12-19T22:55:22.594Z,100
2022-12-19T23:00:05.544Z,100
2022-12-19T23:04:48.501Z,100
2022-12-19T23:09:31.487Z,100
2022-12-19T23:14:14.967Z,100
2022-12-19T23:18:57.972Z,100
2022-12-19T23:23:41.020Z,100
2022-12-19T23:28:25.925Z,100
2022-12-19T23:33:08.917Z,100
2022-12-19T23:37:51.917Z,100
2022-12-19T23:42:35.384Z,100
2022-12-19T23:47:18.555Z,100
2022-12-19T23:52:01.599Z,100
2022-12-19T23:56:44.663Z,100
